createdAt,value
2019-04-03T00:00:31.054Z,22.22
2019-04-03T00:01:30.995Z,22.22
2019-04-03T00:02:30.969Z,22.17
2019-04-03T00:03:30.911Z,22.18
2019-04-03T00:04:30.870Z,22.13
2019-04-03T00:05:30.868Z,22.20
2019-04-03T00:06:30.777Z,22.17
2019-04-03T00:07:30.734Z,22.23
2019-04-03T00:08:30.686Z,22.22
2019-04-03T00:09:30.635Z,22.20
2019-04-03T00:10:30.805Z,22.18
2019-04-03T00:11:30.550Z,22.28
2019-04-03T00:12:30.635Z,22.25
2019-04-03T00:13:30.468Z,22.17
2019-04-03T00:14:30.406Z,22.25
2019-04-03T00:15:30.373Z,22.23
2019-04-03T00:16:30.319Z,22.38
2019-04-03T00:17:30.346Z,22.20
2019-04-03T00:18:30.236Z,22.17
2019-04-03T00:19:30.183Z,22.26
2019-04-03T00:20:30.151Z,22.28
2019-04-03T00:21:30.089Z,22.20
2019-04-03T00:22:30.065Z,22.22
2019-04-03T00:23:30.006Z,22.26
2019-04-03T00:24:29.938Z,22.23
2019-04-03T00:25:29.941Z,22.26
2019-04-03T00:26:30.815Z,22.15
2019-04-03T00:27:29.801Z,22.08
2019-04-03T00:28:29.761Z,22.04
2019-04-03T00:29:29.712Z,22.00
2019-04-03T00:30:29.664Z,22.06
2019-04-03T00:31:29.617Z,21.98
2019-04-03T00:32:29.584Z,22.02
2019-04-03T00:33:29.527Z,22.11
2019-04-03T00:34:29.481Z,22.13
2019-04-03T00:35:29.456Z,22.15
2019-04-03T00:36:29.401Z,22.22
2019-04-03T00:37:29.437Z,22.22
2019-04-03T00:38:29.310Z,22.15
2019-04-03T00:39:29.256Z,22.14
2019-04-03T00:40:29.281Z,22.18
2019-04-03T00:41:29.159Z,22.18
2019-04-03T00:42:29.135Z,22.28
2019-04-03T00:43:29.180Z,22.26
2019-04-03T00:44:29.035Z,22.17
2019-04-03T00:45:29.010Z,22.11
2019-04-03T00:46:28.941Z,22.06
2019-04-03T00:47:28.891Z,22.13
2019-04-03T00:48:28.845Z,22.07
2019-04-03T00:49:28.807Z,22.15
2019-04-03T00:50:28.754Z,22.22
2019-04-03T00:51:28.699Z,22.28
2019-04-03T00:52:28.692Z,22.22
2019-04-03T00:53:28.608Z,22.23
2019-04-03T00:54:31.015Z,22.18
2019-04-03T00:55:28.525Z,22.17
2019-04-03T00:56:28.480Z,22.11
2019-04-03T00:57:28.451Z,22.10
2019-04-03T00:58:28.383Z,22.07
2019-04-03T00:59:28.332Z,22.00
2019-04-03T01:00:28.295Z,22.06
2019-04-03T01:01:28.262Z,22.11
2019-04-03T01:02:28.638Z,22.08
2019-04-03T01:03:28.672Z,22.18
2019-04-03T01:04:28.774Z,22.22
2019-04-03T01:05:28.563Z,22.26
2019-04-03T01:06:28.687Z,22.17
2019-04-03T01:07:29.306Z,22.29
2019-04-03T01:08:29.422Z,22.26
2019-04-03T01:09:29.808Z,22.20
2019-04-03T01:10:29.570Z,22.35
2019-04-03T01:11:28.869Z,22.30
2019-04-03T01:12:30.368Z,22.33
2019-04-03T01:13:27.690Z,22.35
2019-04-03T01:14:27.659Z,22.29
2019-04-03T01:15:27.607Z,22.35
2019-04-03T01:16:27.574Z,22.38
2019-04-03T01:17:27.515Z,22.29
2019-04-03T01:18:27.468Z,22.25
2019-04-03T01:19:27.436Z,22.23
2019-04-03T01:20:27.382Z,22.23
2019-04-03T01:21:27.531Z,22.14
2019-04-03T01:22:27.279Z,22.15
2019-04-03T01:23:27.231Z,22.04
2019-04-03T01:24:27.187Z,22.11
2019-04-03T01:25:27.166Z,22.13
2019-04-03T01:26:27.094Z,22.11
2019-04-03T01:27:27.057Z,22.15
2019-04-03T01:28:27.021Z,22.13
2019-04-03T01:29:26.960Z,22.15
2019-04-03T01:30:26.925Z,22.15
2019-04-03T01:31:27.005Z,22.07
2019-04-03T01:32:26.868Z,22.15
2019-04-03T01:33:26.773Z,22.13
2019-04-03T01:34:26.730Z,22.07
2019-04-03T01:35:26.690Z,22.08
2019-04-03T01:36:26.644Z,22.13
2019-04-03T01:37:26.602Z,22.15
2019-04-03T01:38:26.567Z,22.22
2019-04-03T01:39:26.527Z,22.29
2019-04-03T01:40:26.465Z,22.29
2019-04-03T01:41:26.406Z,22.39
2019-04-03T01:42:26.382Z,22.30
2019-04-03T01:43:26.337Z,22.36
2019-04-03T01:44:26.290Z,22.41
2019-04-03T01:45:26.312Z,22.29
2019-04-03T01:46:27.585Z,22.32
2019-04-03T01:47:27.793Z,22.32
2019-04-03T01:48:26.889Z,22.26
2019-04-03T01:49:28.044Z,22.29
2019-04-03T01:50:26.951Z,22.28
2019-04-03T01:51:25.960Z,22.30
2019-04-03T01:52:25.902Z,22.15
2019-04-03T01:53:25.869Z,22.35
2019-04-03T01:54:25.993Z,22.28
2019-04-03T01:55:25.765Z,22.28
2019-04-03T01:56:25.844Z,22.30
2019-04-03T01:57:25.674Z,22.26
2019-04-03T01:58:25.760Z,22.17
2019-04-03T01:59:25.581Z,22.26
2019-04-03T02:00:25.832Z,22.28
2019-04-03T02:01:25.501Z,22.33
2019-04-03T02:02:25.457Z,22.32
2019-04-03T02:03:25.398Z,22.36
2019-04-03T02:04:25.459Z,22.36
2019-04-03T02:05:25.328Z,22.29
2019-04-03T02:06:25.282Z,22.30
2019-04-03T02:07:25.224Z,22.29
2019-04-03T02:08:25.177Z,22.30
2019-04-03T02:09:25.136Z,22.23
2019-04-03T02:10:25.246Z,22.28
2019-04-03T02:11:25.068Z,22.30
2019-04-03T02:12:25.004Z,22.29
2019-04-03T02:13:24.941Z,22.29
2019-04-03T02:14:24.916Z,22.23
2019-04-03T02:15:25.092Z,22.33
2019-04-03T02:16:24.824Z,22.36
2019-04-03T02:17:24.779Z,22.35
2019-04-03T02:18:25.531Z,22.41
2019-04-03T02:19:26.251Z,22.32
2019-04-03T02:20:26.756Z,22.41
2019-04-03T02:21:27.281Z,22.36
2019-04-03T02:22:24.551Z,22.43
2019-04-03T02:23:24.495Z,22.43
2019-04-03T02:24:24.529Z,22.39
2019-04-03T02:25:24.404Z,22.41
2019-04-03T02:26:24.346Z,22.47
2019-04-03T02:27:24.307Z,22.41
2019-04-03T02:28:24.395Z,22.43
2019-04-03T02:29:24.225Z,22.45
2019-04-03T02:30:24.185Z,22.44
2019-04-03T02:31:24.349Z,22.43
2019-04-03T02:32:24.893Z,22.39
2019-04-03T02:33:24.051Z,22.45
2019-04-03T02:34:24.389Z,22.43
2019-04-03T02:35:23.935Z,22.43
2019-04-03T02:36:23.992Z,22.47
2019-04-03T02:37:23.996Z,22.53
2019-04-03T02:38:23.936Z,22.55
2019-04-03T02:39:27.339Z,22.50
2019-04-03T02:40:23.717Z,22.57
2019-04-03T02:41:23.672Z,22.45
2019-04-03T02:42:23.754Z,22.44
2019-04-03T02:43:23.587Z,22.48
2019-04-03T02:44:23.672Z,22.53
2019-04-03T02:45:24.685Z,22.48
2019-04-03T02:46:26.967Z,22.43
2019-04-03T02:47:23.394Z,22.47
2019-04-03T02:48:23.367Z,22.43
2019-04-03T02:49:23.305Z,22.36
2019-04-03T02:50:23.269Z,22.41
2019-04-03T02:51:23.218Z,22.44
2019-04-03T02:52:25.357Z,22.41
2019-04-03T02:53:23.118Z,22.38
2019-04-03T02:54:23.064Z,22.38
2019-04-03T02:55:23.033Z,22.39
2019-04-03T02:56:22.995Z,22.35
2019-04-03T02:57:22.935Z,22.38
2019-04-03T02:58:23.402Z,22.41
2019-04-03T02:59:25.143Z,22.43
2019-04-03T03:00:22.831Z,22.36
2019-04-03T03:01:22.757Z,22.33
2019-04-03T03:02:22.721Z,22.29
2019-04-03T03:03:22.664Z,22.22
2019-04-03T03:04:22.629Z,22.23
2019-04-03T03:05:22.656Z,22.30
2019-04-03T03:06:22.750Z,22.25
2019-04-03T03:07:22.470Z,22.28
2019-04-03T03:08:23.314Z,22.22
2019-04-03T03:09:22.406Z,22.20
2019-04-03T03:10:22.404Z,22.26
2019-04-03T03:11:24.502Z,22.33
2019-04-03T03:12:22.249Z,22.26
2019-04-03T03:13:22.217Z,22.29
2019-04-03T03:14:22.163Z,22.22
2019-04-03T03:15:22.405Z,22.25
2019-04-03T03:16:22.070Z,22.22
2019-04-03T03:17:23.504Z,22.29
2019-04-03T03:18:21.965Z,22.22
2019-04-03T03:19:21.922Z,22.26
2019-04-03T03:20:21.882Z,22.29
2019-04-03T03:21:21.846Z,22.23
2019-04-03T03:22:21.803Z,22.17
2019-04-03T03:23:23.373Z,22.28
2019-04-03T03:24:21.703Z,22.25
2019-04-03T03:25:21.664Z,22.29
2019-04-03T03:26:21.944Z,22.22
2019-04-03T03:27:21.557Z,22.17
2019-04-03T03:28:21.555Z,22.20
2019-04-03T03:29:25.181Z,22.25
2019-04-03T03:30:38.944Z,22.14
2019-04-03T03:31:35.761Z,22.11
2019-04-03T03:32:29.747Z,22.06
2019-04-03T03:33:30.093Z,22.00
2019-04-03T03:34:45.911Z,22.08
2019-04-03T03:35:29.411Z,22.11
2019-04-03T03:36:24.724Z,22.08
2019-04-03T03:37:21.122Z,22.00
2019-04-03T03:38:21.068Z,22.00
2019-04-03T03:39:21.003Z,22.02
2019-04-03T03:40:20.966Z,22.04
2019-04-03T03:41:23.242Z,22.02
2019-04-03T03:42:20.883Z,21.99
2019-04-03T03:43:21.100Z,22.07
2019-04-03T03:44:20.795Z,22.02
2019-04-03T03:45:21.596Z,22.07
2019-04-03T03:46:20.688Z,21.96
2019-04-03T03:47:20.644Z,22.04
2019-04-03T03:48:20.775Z,21.95
2019-04-03T03:49:20.564Z,22.00
2019-04-03T03:50:23.923Z,22.04
2019-04-03T03:51:20.705Z,22.02
2019-04-03T03:52:20.424Z,21.99
2019-04-03T03:53:20.383Z,22.06
2019-04-03T03:54:20.504Z,21.91
2019-04-03T03:55:22.908Z,21.93
2019-04-03T03:56:20.554Z,21.89
2019-04-03T03:57:20.197Z,21.89
2019-04-03T03:58:20.193Z,21.89
2019-04-03T03:59:20.089Z,21.91
2019-04-03T04:00:22.554Z,21.85
2019-04-03T04:01:20.000Z,21.79
2019-04-03T04:02:19.956Z,21.77
2019-04-03T04:03:20.198Z,21.76
2019-04-03T04:04:19.856Z,21.77
2019-04-03T04:05:22.121Z,21.83
2019-04-03T04:06:19.785Z,21.92
2019-04-03T04:07:19.717Z,21.91
2019-04-03T04:08:19.671Z,21.89
2019-04-03T04:09:19.641Z,21.85
2019-04-03T04:10:23.914Z,21.89
2019-04-03T04:11:19.955Z,21.92
2019-04-03T04:12:19.499Z,21.83
2019-04-03T04:13:19.462Z,21.93
2019-04-03T04:14:22.844Z,21.83
2019-04-03T04:15:19.370Z,21.88
2019-04-03T04:16:19.645Z,21.82
2019-04-03T04:17:19.576Z,21.82
2019-04-03T04:18:22.800Z,21.85
2019-04-03T04:19:19.165Z,21.72
2019-04-03T04:20:19.127Z,21.73
2019-04-03T04:21:19.135Z,21.82
2019-04-03T04:22:19.276Z,21.85
2019-04-03T04:23:23.116Z,21.75
2019-04-03T04:24:18.956Z,21.89
2019-04-03T04:25:18.913Z,21.92
2019-04-03T04:26:18.864Z,21.75
2019-04-03T04:27:18.905Z,21.82
2019-04-03T04:28:18.751Z,21.75
2019-04-03T04:29:18.712Z,21.73
2019-04-03T04:30:18.662Z,21.79
2019-04-03T04:31:18.634Z,21.73
2019-04-03T04:32:18.576Z,21.73
2019-04-03T04:33:18.788Z,21.72
2019-04-03T04:34:19.451Z,21.73
2019-04-03T04:35:20.644Z,21.73
2019-04-03T04:36:18.391Z,21.67
2019-04-03T04:37:18.362Z,21.66
2019-04-03T04:38:18.291Z,21.75
2019-04-03T04:39:18.340Z,21.79
2019-04-03T04:40:18.425Z,21.76
2019-04-03T04:41:18.185Z,21.77
2019-04-03T04:42:18.119Z,21.77
2019-04-03T04:43:18.060Z,21.79
2019-04-03T04:44:18.022Z,21.83
2019-04-03T04:45:17.976Z,21.89
2019-04-03T04:46:17.950Z,21.88
2019-04-03T04:47:17.894Z,21.91
2019-04-03T04:48:20.363Z,21.79
2019-04-03T04:49:18.005Z,21.85
2019-04-03T04:50:17.746Z,21.82
2019-04-03T04:51:17.704Z,21.76
2019-04-03T04:52:17.669Z,21.75
2019-04-03T04:54:17.580Z,21.80
2019-04-03T04:55:17.521Z,21.79
2019-04-03T04:56:17.475Z,21.69
2019-04-03T04:57:17.439Z,21.73
2019-04-03T04:58:17.390Z,21.76
2019-04-03T04:59:17.357Z,21.72
2019-04-03T05:00:17.484Z,21.70
2019-04-03T05:01:18.144Z,21.75
2019-04-03T05:02:17.856Z,21.77
2019-04-03T05:03:17.139Z,21.80
2019-04-03T05:04:17.115Z,21.75
2019-04-03T05:05:17.280Z,21.72
2019-04-03T05:06:17.002Z,21.73
2019-04-03T05:07:17.439Z,21.61
2019-04-03T05:08:16.957Z,21.70
2019-04-03T05:09:16.916Z,21.60
2019-04-03T05:10:17.984Z,21.57
2019-04-03T05:11:16.947Z,21.48
2019-04-03T05:12:16.738Z,21.46
2019-04-03T05:13:17.007Z,21.62
2019-04-03T05:14:18.013Z,21.55
2019-04-03T05:15:19.536Z,21.60
2019-04-03T05:16:19.545Z,21.50
2019-04-03T05:17:16.503Z,21.48
2019-04-03T05:18:16.633Z,21.54
2019-04-03T05:19:19.134Z,21.52
2019-04-03T05:20:17.876Z,21.36
2019-04-03T05:21:16.512Z,21.45
2019-04-03T05:22:16.264Z,21.43
2019-04-03T05:23:16.521Z,21.42
2019-04-03T05:24:16.185Z,21.45
2019-04-03T05:25:16.147Z,21.42
2019-04-03T05:26:16.101Z,21.36
2019-04-03T05:27:16.046Z,21.35
2019-04-03T05:28:15.990Z,21.39
2019-04-03T05:29:15.965Z,21.46
2019-04-03T05:30:15.908Z,21.43
2019-04-03T05:31:15.861Z,21.36
2019-04-03T05:32:15.825Z,21.37
2019-04-03T05:33:15.758Z,21.39
2019-04-03T05:34:15.721Z,21.36
2019-04-03T05:35:15.947Z,21.43
2019-04-03T05:36:17.756Z,21.54
2019-04-03T05:37:15.594Z,21.55
2019-04-03T05:38:15.611Z,21.52
2019-04-03T05:39:15.728Z,21.50
2019-04-03T05:40:15.695Z,21.54
2019-04-03T05:41:15.403Z,21.54
2019-04-03T05:42:15.362Z,21.46
2019-04-03T05:43:15.320Z,21.55
2019-04-03T05:44:15.388Z,21.50
2019-04-03T05:45:15.211Z,21.51
2019-04-03T05:46:15.166Z,21.50
2019-04-03T05:47:15.123Z,21.48
2019-04-03T05:48:17.694Z,21.51
2019-04-03T05:49:15.018Z,21.52
2019-04-03T05:50:14.993Z,21.55
2019-04-03T05:51:14.932Z,21.50
2019-04-03T05:52:14.925Z,21.52
2019-04-03T05:53:14.855Z,21.57
2019-04-03T05:54:14.929Z,21.54
2019-04-03T05:55:14.741Z,21.42
2019-04-03T05:56:14.735Z,21.33
2019-04-03T05:57:14.664Z,21.36
2019-04-03T05:58:16.267Z,21.33
2019-04-03T05:59:14.764Z,21.35
2019-04-03T06:00:14.519Z,21.33
2019-04-03T06:01:14.473Z,21.32
2019-04-03T06:02:16.934Z,21.40
2019-04-03T06:03:14.712Z,21.40
2019-04-03T06:04:14.335Z,21.50
2019-04-03T06:05:14.343Z,21.52
2019-04-03T06:06:15.433Z,21.43
2019-04-03T06:07:14.195Z,21.36
2019-04-03T06:08:14.150Z,21.45
2019-04-03T06:09:14.102Z,21.48
2019-04-03T06:10:14.064Z,21.35
2019-04-03T06:11:14.103Z,21.46
2019-04-03T06:12:14.992Z,21.37
2019-04-03T06:13:16.771Z,21.37
2019-04-03T06:14:13.924Z,21.37
2019-04-03T06:15:14.051Z,21.42
2019-04-03T06:16:16.217Z,21.43
2019-04-03T06:17:13.725Z,21.45
2019-04-03T06:18:13.889Z,21.52
2019-04-03T06:19:13.632Z,21.35
2019-04-03T06:20:13.796Z,21.42
2019-04-03T06:21:15.599Z,21.46
2019-04-03T06:22:16.535Z,21.40
2019-04-03T06:23:13.456Z,21.48
2019-04-03T06:24:13.415Z,21.43
2019-04-03T06:25:14.002Z,21.30
2019-04-03T06:26:13.350Z,21.24
2019-04-03T06:27:13.360Z,21.32
2019-04-03T06:28:13.808Z,21.27
2019-04-03T06:29:13.185Z,21.32
2019-04-03T06:30:13.133Z,21.29
2019-04-03T06:31:13.215Z,21.20
2019-04-03T06:32:13.047Z,21.20
2019-04-03T06:33:12.986Z,21.20
2019-04-03T06:34:13.037Z,21.12
2019-04-03T06:35:13.864Z,21.15
2019-04-03T06:36:12.929Z,21.09
2019-04-03T06:37:12.800Z,21.11
2019-04-03T06:38:12.755Z,21.07
2019-04-03T06:39:12.709Z,21.11
2019-04-03T06:40:12.683Z,21.06
2019-04-03T06:41:12.798Z,21.06
2019-04-03T06:42:13.296Z,21.11
2019-04-03T06:43:12.523Z,21.15
2019-04-03T06:44:12.479Z,21.07
2019-04-03T06:45:15.414Z,21.21
2019-04-03T06:46:12.666Z,21.21
2019-04-03T06:47:12.346Z,21.14
2019-04-03T06:48:12.302Z,21.18
2019-04-03T06:49:12.375Z,21.20
2019-04-03T06:50:13.315Z,21.15
2019-04-03T06:51:12.153Z,21.17
2019-04-03T06:52:12.128Z,21.11
2019-04-03T06:53:12.068Z,20.95
2019-04-03T06:54:12.036Z,20.95
2019-04-03T06:55:11.978Z,21.05
2019-04-03T06:56:11.934Z,21.11
2019-04-03T06:57:13.881Z,21.09
2019-04-03T06:58:12.359Z,21.05
2019-04-03T06:59:11.791Z,21.02
2019-04-03T07:00:11.758Z,21.03
2019-04-03T07:01:11.711Z,21.11
2019-04-03T07:02:11.644Z,20.97
2019-04-03T07:03:11.715Z,20.96
2019-04-03T07:04:11.568Z,20.96
2019-04-03T07:05:11.512Z,20.95
2019-04-03T07:06:13.121Z,20.96
2019-04-03T07:07:11.667Z,20.97
2019-04-03T07:08:11.597Z,20.92
2019-04-03T07:09:21.665Z,21.02
2019-04-03T07:10:23.367Z,20.96
2019-04-03T07:11:22.848Z,20.88
2019-04-03T07:12:11.192Z,20.88
2019-04-03T07:13:11.133Z,20.90
2019-04-03T07:14:11.168Z,20.96
2019-04-03T07:15:11.050Z,21.02
2019-04-03T07:16:10.994Z,20.96
2019-04-03T07:17:10.959Z,20.96
2019-04-03T07:18:10.923Z,20.92
2019-04-03T07:19:11.033Z,21.02
2019-04-03T07:20:14.422Z,20.93
2019-04-03T07:21:10.785Z,20.96
2019-04-03T07:22:10.837Z,20.97
2019-04-03T07:23:10.685Z,20.97
2019-04-03T07:24:10.623Z,20.93
2019-04-03T07:25:10.586Z,21.00
2019-04-03T07:26:10.590Z,21.00
2019-04-03T07:27:10.497Z,20.92
2019-04-03T07:28:10.448Z,20.88
2019-04-03T07:29:12.181Z,20.90
2019-04-03T07:30:10.431Z,20.87
2019-04-03T07:31:10.305Z,20.88
2019-04-03T07:32:10.282Z,20.80
2019-04-03T07:33:10.229Z,20.82
2019-04-03T07:34:10.414Z,20.75
2019-04-03T07:35:10.453Z,20.70
2019-04-03T07:36:11.362Z,20.69
2019-04-03T07:37:10.042Z,20.72
2019-04-03T07:38:10.183Z,20.74
2019-04-03T07:39:11.129Z,20.69
2019-04-03T07:40:10.139Z,20.72
2019-04-03T07:41:09.834Z,20.70
2019-04-03T07:42:09.810Z,20.75
2019-04-03T07:43:09.744Z,20.72
2019-04-03T07:44:09.983Z,20.74
2019-04-03T07:45:09.657Z,20.74
2019-04-03T07:46:09.625Z,20.75
2019-04-03T07:47:09.677Z,20.72
2019-04-03T07:48:09.548Z,20.74
2019-04-03T07:49:09.977Z,20.74
2019-04-03T07:50:10.945Z,20.81
2019-04-03T07:51:12.477Z,20.84
2019-04-03T07:52:09.323Z,20.82
2019-04-03T07:53:09.301Z,20.84
2019-04-03T07:54:09.419Z,20.81
2019-04-03T07:55:09.198Z,20.87
2019-04-03T07:56:09.151Z,20.84
2019-04-03T07:57:10.173Z,20.84
2019-04-03T07:58:09.053Z,20.84
2019-04-03T07:59:09.020Z,20.78
2019-04-03T08:00:08.983Z,20.78
2019-04-03T08:01:10.548Z,20.81
2019-04-03T08:02:12.088Z,20.78
2019-04-03T08:03:08.834Z,20.67
2019-04-03T08:04:08.835Z,20.74
2019-04-03T08:05:08.733Z,20.67
2019-04-03T08:06:08.682Z,20.78
2019-04-03T08:07:08.696Z,20.66
2019-04-03T08:08:08.580Z,20.74
2019-04-03T08:09:09.900Z,20.74
2019-04-03T08:10:08.505Z,20.70
2019-04-03T08:11:08.441Z,20.74
2019-04-03T08:12:08.396Z,20.70
2019-04-03T08:13:08.533Z,20.69
2019-04-03T08:14:09.082Z,20.63
2019-04-03T08:15:08.273Z,20.62
2019-04-03T08:16:08.574Z,20.65
2019-04-03T08:17:08.176Z,20.65
2019-04-03T08:18:08.358Z,20.63
2019-04-03T08:19:08.772Z,20.69
2019-04-03T08:20:08.165Z,20.66
2019-04-03T08:21:08.255Z,20.62
2019-04-03T08:22:08.149Z,20.59
2019-04-03T08:23:07.893Z,20.62
2019-04-03T08:24:08.615Z,20.58
2019-04-03T08:25:10.599Z,20.48
2019-04-03T08:26:10.809Z,20.44
2019-04-03T08:27:08.694Z,20.48
2019-04-03T08:28:07.653Z,20.50
2019-04-03T08:29:07.617Z,20.51
2019-04-03T08:30:08.668Z,20.48
2019-04-03T08:31:10.852Z,20.43
2019-04-03T08:32:07.478Z,20.52
2019-04-03T08:33:15.860Z,20.56
2019-04-03T08:34:16.007Z,20.55
2019-04-03T08:35:19.323Z,20.58
2019-04-03T08:36:08.136Z,20.51
2019-04-03T08:37:09.639Z,20.52
2019-04-03T08:38:07.186Z,20.50
2019-04-03T08:39:07.148Z,20.43
2019-04-03T08:40:07.106Z,20.55
2019-04-03T08:41:07.067Z,20.56
2019-04-03T08:42:07.081Z,20.40
2019-04-03T08:43:06.968Z,20.44
2019-04-03T08:44:08.462Z,20.43
2019-04-03T08:45:07.135Z,20.50
2019-04-03T08:46:09.501Z,20.51
2019-04-03T08:47:06.775Z,20.52
2019-04-03T08:48:07.289Z,20.44
2019-04-03T08:49:06.695Z,20.51
2019-04-03T08:50:06.648Z,20.51
2019-04-03T08:51:06.589Z,20.52
2019-04-03T08:52:06.534Z,20.51
2019-04-03T08:53:08.649Z,20.51
2019-04-03T08:54:09.498Z,20.43
2019-04-03T08:55:06.394Z,20.52
2019-04-03T08:56:06.347Z,20.56
2019-04-03T08:57:06.301Z,20.48
2019-04-03T08:58:06.263Z,20.55
2019-04-03T08:59:06.208Z,20.50
2019-04-03T09:00:06.182Z,20.51
2019-04-03T09:01:06.123Z,20.41
2019-04-03T09:02:07.874Z,20.43
2019-04-03T09:03:06.038Z,20.51
2019-04-03T09:04:05.975Z,20.50
2019-04-03T09:05:05.949Z,20.51
2019-04-03T09:06:05.890Z,20.56
2019-04-03T09:07:05.859Z,20.55
2019-04-03T09:08:05.800Z,20.55
2019-04-03T09:09:06.036Z,20.50
2019-04-03T09:10:05.696Z,20.51
2019-04-03T09:11:06.044Z,20.48
2019-04-03T09:12:07.276Z,20.48
2019-04-03T09:13:16.117Z,20.52
2019-04-03T09:14:05.804Z,20.48
2019-04-03T09:15:05.464Z,20.55
2019-04-03T09:16:05.631Z,20.58
2019-04-03T09:17:05.391Z,20.62
2019-04-03T09:18:06.417Z,20.52
2019-04-03T09:19:05.284Z,20.52
2019-04-03T09:20:05.539Z,20.59
2019-04-03T09:21:05.211Z,20.62
2019-04-03T09:22:05.315Z,20.62
2019-04-03T09:23:05.394Z,20.59
2019-04-03T09:24:05.065Z,20.58
2019-04-03T09:25:05.358Z,20.51
2019-04-03T09:26:04.963Z,20.52
2019-04-03T09:27:04.918Z,20.52
2019-04-03T09:28:05.200Z,20.51
2019-04-03T09:29:04.825Z,20.44
2019-04-03T09:30:05.149Z,20.47
2019-04-03T09:31:04.727Z,20.47
2019-04-03T09:32:04.724Z,20.43
2019-04-03T09:33:04.625Z,20.40
2019-04-03T09:34:04.588Z,20.51
2019-04-03T09:35:04.549Z,20.48
2019-04-03T09:36:04.607Z,20.44
2019-04-03T09:37:06.428Z,20.50
2019-04-03T09:38:04.406Z,20.44
2019-04-03T09:39:04.367Z,20.47
2019-04-03T09:40:04.328Z,20.52
2019-04-03T09:41:04.261Z,20.55
2019-04-03T09:42:04.215Z,20.59
2019-04-03T09:43:04.168Z,20.52
2019-04-03T09:44:04.133Z,20.55
2019-04-03T09:45:04.075Z,20.55
2019-04-03T09:46:04.029Z,20.67
2019-04-03T09:47:03.986Z,20.65
2019-04-03T09:48:05.626Z,20.69
2019-04-03T09:49:03.881Z,20.72
2019-04-03T09:50:03.856Z,20.75
2019-04-03T09:51:03.793Z,20.75
2019-04-03T09:52:03.752Z,20.82
2019-04-03T09:53:03.695Z,20.82
2019-04-03T09:54:03.816Z,20.92
2019-04-03T09:55:03.605Z,20.92
2019-04-03T09:56:03.568Z,20.96
2019-04-03T09:57:05.283Z,20.99
2019-04-03T09:58:04.273Z,21.07
2019-04-03T09:59:04.464Z,21.06
2019-04-03T10:00:03.380Z,21.02
2019-04-03T10:01:03.326Z,21.29
2019-04-03T10:02:03.498Z,21.42
2019-04-03T10:03:05.807Z,21.45
2019-04-03T10:04:03.196Z,21.45
2019-04-03T10:05:03.187Z,21.54
2019-04-03T10:06:03.116Z,21.57
2019-04-03T10:07:03.059Z,21.64
2019-04-03T10:08:03.017Z,21.76
2019-04-03T10:09:03.158Z,21.80
2019-04-03T10:10:02.933Z,21.75
2019-04-03T10:11:02.874Z,21.82
2019-04-03T10:12:02.829Z,21.98
2019-04-03T10:13:03.066Z,21.92
2019-04-03T10:14:02.982Z,21.99
2019-04-03T10:15:02.749Z,21.99
2019-04-03T10:16:03.891Z,22.04
2019-04-03T10:17:03.880Z,22.00
2019-04-03T10:18:02.545Z,22.02
2019-04-03T10:19:02.601Z,22.04
2019-04-03T10:20:02.456Z,22.07
2019-04-03T10:21:02.419Z,22.06
2019-04-03T10:22:02.380Z,22.13
2019-04-03T10:23:02.343Z,22.17
2019-04-03T10:24:02.286Z,22.25
2019-04-03T10:25:04.865Z,22.25
2019-04-03T10:26:02.301Z,22.50
2019-04-03T10:27:02.137Z,22.53
2019-04-03T10:28:02.313Z,22.63
2019-04-03T10:29:02.428Z,22.84
2019-04-03T10:30:02.011Z,22.72
2019-04-03T10:31:01.970Z,22.85
2019-04-03T10:32:01.920Z,22.94
2019-04-03T10:33:02.019Z,23.24
2019-04-03T10:34:03.154Z,23.74
2019-04-03T10:35:02.006Z,23.81
2019-04-03T10:36:01.731Z,24.03
2019-04-03T10:37:01.689Z,24.33
2019-04-03T10:38:01.986Z,24.58
2019-04-03T10:39:01.607Z,24.80
2019-04-03T10:40:01.755Z,24.95
2019-04-03T10:41:01.852Z,25.13
2019-04-03T10:42:01.716Z,25.54
2019-04-03T10:43:04.686Z,26.02
2019-04-03T10:44:01.548Z,26.31
2019-04-03T10:45:01.344Z,26.71
2019-04-03T10:46:01.745Z,26.92
2019-04-03T10:47:01.301Z,27.07
2019-04-03T10:48:01.239Z,27.27
2019-04-03T10:49:01.329Z,27.51
2019-04-03T10:50:02.627Z,27.93
2019-04-03T10:51:01.110Z,28.19
2019-04-03T10:52:01.258Z,28.35
2019-04-03T10:53:01.136Z,28.35
2019-04-03T10:54:00.975Z,28.42
2019-04-03T10:55:01.061Z,28.59
2019-04-03T10:56:01.175Z,28.75
2019-04-03T10:57:03.038Z,28.89
2019-04-03T10:58:02.423Z,29.19
2019-04-03T10:59:10.340Z,29.41
2019-04-03T11:00:01.019Z,29.56
2019-04-03T11:01:01.152Z,29.63
2019-04-03T11:02:00.873Z,29.60
2019-04-03T11:03:00.843Z,29.65
2019-04-03T11:04:00.802Z,29.78
2019-04-03T11:05:00.706Z,29.59
2019-04-03T11:06:00.710Z,29.39
2019-04-03T11:07:00.511Z,29.20
2019-04-03T11:08:00.459Z,28.94
2019-04-03T11:09:00.428Z,28.60
2019-04-03T11:10:01.085Z,28.08
2019-04-03T11:11:00.779Z,27.63
2019-04-03T11:12:01.178Z,27.48
2019-04-03T11:13:00.900Z,27.47
2019-04-03T11:14:02.384Z,27.47
2019-04-03T11:15:00.422Z,27.48
2019-04-03T11:16:00.366Z,27.58
2019-04-03T11:17:00.497Z,27.59
2019-04-03T11:18:00.104Z,27.68
2019-04-03T11:19:04.801Z,27.78
2019-04-03T11:20:00.005Z,27.85
2019-04-03T11:21:00.067Z,27.71
2019-04-03T11:22:00.295Z,27.74
2019-04-03T11:23:06.844Z,27.64
2019-04-03T11:24:00.221Z,27.60
2019-04-03T11:24:59.921Z,27.60
2019-04-03T11:25:59.777Z,27.64
2019-04-03T11:26:59.758Z,27.73
2019-04-03T11:27:59.922Z,27.58
2019-04-03T11:28:59.739Z,27.42
2019-04-03T11:29:59.611Z,27.20
2019-04-03T11:31:01.153Z,27.05
2019-04-03T11:31:59.780Z,26.90
2019-04-03T11:32:59.511Z,26.66
2019-04-03T11:33:59.663Z,26.45
2019-04-03T11:34:59.587Z,26.29
2019-04-03T11:35:59.372Z,26.06
2019-04-03T11:37:00.878Z,26.06
2019-04-03T11:38:11.192Z,26.07
2019-04-03T11:39:11.162Z,26.25
2019-04-03T11:40:04.280Z,26.34
2019-04-03T11:41:11.356Z,26.33
2019-04-03T11:41:59.120Z,26.44
2019-04-03T11:42:59.086Z,26.51
2019-04-03T11:43:59.033Z,26.65
2019-04-03T11:44:58.994Z,26.65
2019-04-03T11:45:59.185Z,26.70
2019-04-03T11:46:59.054Z,26.68
2019-04-03T11:47:58.901Z,26.68
2019-04-03T11:48:58.831Z,26.65
2019-04-03T11:49:58.870Z,26.44
2019-04-03T11:50:58.738Z,26.38
2019-04-03T11:51:58.966Z,26.34
2019-04-03T11:53:01.493Z,26.28
2019-04-03T11:53:58.631Z,26.18
2019-04-03T11:54:58.565Z,26.05
2019-04-03T11:55:58.687Z,25.85
2019-04-03T11:56:58.481Z,25.73
2019-04-03T11:57:58.441Z,25.58
2019-04-03T11:58:58.496Z,25.65
2019-04-03T11:59:58.586Z,25.62
2019-04-03T12:00:58.606Z,25.73
2019-04-03T12:01:58.590Z,25.84
2019-04-03T12:02:58.229Z,26.02
2019-04-03T12:03:58.419Z,26.13
2019-04-03T12:04:58.140Z,26.23
2019-04-03T12:05:58.074Z,26.13
2019-04-03T12:06:58.052Z,26.13
2019-04-03T12:07:57.996Z,26.28
2019-04-03T12:09:00.899Z,26.22
2019-04-03T12:09:57.906Z,26.37
2019-04-03T12:10:57.879Z,26.36
2019-04-03T12:11:57.944Z,26.31
2019-04-03T12:12:58.101Z,26.38
2019-04-03T12:13:57.741Z,26.41
2019-04-03T12:14:57.701Z,26.36
2019-04-03T12:15:58.782Z,26.47
2019-04-03T12:16:58.474Z,26.44
2019-04-03T12:18:00.731Z,26.52
2019-04-03T12:18:57.531Z,26.52
2019-04-03T12:19:57.706Z,26.53
2019-04-03T12:20:57.669Z,26.68
2019-04-03T12:21:57.699Z,26.78
2019-04-03T12:22:57.347Z,26.85
2019-04-03T12:23:58.227Z,26.88
2019-04-03T12:24:57.519Z,26.93
2019-04-03T12:25:57.238Z,27.07
2019-04-03T12:26:57.178Z,27.15
2019-04-03T12:27:57.161Z,27.37
2019-04-03T12:28:57.091Z,27.30
2019-04-03T12:29:57.041Z,27.03
2019-04-03T12:30:57.129Z,27.20
2019-04-03T12:31:57.056Z,27.37
2019-04-03T12:32:56.905Z,27.25
2019-04-03T12:34:01.129Z,27.25
2019-04-03T12:34:56.823Z,27.27
2019-04-03T12:35:56.799Z,27.32
2019-04-03T12:36:56.961Z,27.22
2019-04-03T12:37:56.840Z,27.17
2019-04-03T12:38:57.218Z,27.39
2019-04-03T12:39:58.265Z,27.55
2019-04-03T12:40:56.585Z,27.70
2019-04-03T12:41:56.541Z,27.85
2019-04-03T12:42:56.486Z,27.85
2019-04-03T12:43:56.440Z,27.87
2019-04-03T12:44:56.405Z,27.74
2019-04-03T12:45:59.081Z,27.75
2019-04-03T12:46:56.317Z,27.75
2019-04-03T12:47:56.649Z,27.78
2019-04-03T12:48:56.545Z,27.83
2019-04-03T12:49:56.647Z,27.93
2019-04-03T12:50:56.906Z,27.98
2019-04-03T12:51:56.114Z,28.15
2019-04-03T12:52:56.186Z,28.14